createdAt,value
2022-12-08T00:01:32.806Z,59.72
2022-12-08T00:04:01.393Z,57.45
2022-12-08T00:06:58.069Z,59.50
2022-12-08T00:09:39.986Z,59.90
2022-12-08T00:12:13.843Z,62.88
2022-12-08T00:14:47.004Z,57.72
2022-12-08T00:17:16.542Z,59.20
2022-12-08T00:19:44.201Z,58.63
2022-12-08T00:22:15.301Z,59.53
2022-12-08T00:24:45.705Z,60.30
2022-12-08T00:27:15.254Z,58.60
2022-12-08T00:29:45.070Z,59.25
2022-12-08T00:32:12.520Z,57.63
2022-12-08T00:34:39.670Z,58.88
2022-12-08T00:37:06.740Z,60.13
2022-12-08T00:39:33.958Z,61.42
2022-12-08T00:42:12.941Z,57.70
2022-12-08T00:44:42.135Z,60.35
2022-12-08T00:47:10.283Z,58.25
2022-12-08T00:49:37.522Z,57.65
2022-12-08T00:52:05.143Z,58.85
2022-12-08T00:54:32.312Z,63.15
2022-12-08T00:57:00.358Z,59.55
2022-12-08T00:59:28.801Z,60.47
2022-12-08T01:01:55.977Z,59.05
2022-12-08T01:04:24.358Z,60.47
2022-12-08T01:06:51.444Z,62.42
2022-12-08T01:09:19.201Z,61.70
2022-12-08T01:11:47.356Z,59.70
2022-12-08T01:14:15.017Z,60.58
2022-12-08T01:16:42.739Z,62.22
2022-12-08T01:19:15.258Z,60.55
2022-12-08T01:21:43.697Z,61.58
2022-12-08T01:24:20.528Z,61.50
2022-12-08T01:26:49.225Z,57.00
2022-12-08T01:29:16.697Z,62.33
2022-12-08T01:31:43.830Z,62.70
2022-12-08T01:34:12.278Z,58.05
2022-12-08T01:36:39.508Z,57.60
2022-12-08T01:39:13.949Z,60.70
2022-12-08T01:41:43.814Z,59.50
2022-12-08T01:44:11.414Z,58.92
2022-12-08T01:46:44.622Z,61.90
2022-12-08T01:49:19.527Z,58.45
2022-12-08T01:52:39.503Z,57.13
2022-12-08T01:55:16.064Z,58.92
2022-12-08T01:57:48.957Z,58.83
2022-12-08T02:00:20.237Z,54.42
2022-12-08T02:03:09.530Z,56.10
2022-12-08T02:05:40.226Z,52.80
2022-12-08T02:08:11.142Z,54.65
2022-12-08T02:10:41.481Z,54.80
2022-12-08T02:13:15.559Z,53.65
2022-12-08T02:15:54.798Z,50.42
2022-12-08T02:18:36.907Z,53.25
2022-12-08T02:21:32.637Z,51.78
2022-12-08T02:24:26.906Z,51.22
2022-12-08T02:27:14.911Z,50.67
2022-12-08T02:29:50.756Z,50.50
2022-12-08T02:32:58.262Z,49.53
2022-12-08T02:35:34.223Z,46.85
2022-12-08T02:38:13.013Z,46.83
2022-12-08T02:41:14.528Z,49.67
2022-12-08T02:43:47.828Z,49.55
2022-12-08T02:46:23.755Z,48.17
2022-12-08T02:48:52.793Z,46.88
2022-12-08T02:51:19.994Z,50.20
2022-12-08T02:53:48.549Z,47.85
2022-12-08T02:56:21.858Z,50.30
2022-12-08T02:59:22.309Z,51.70
2022-12-08T03:02:12.708Z,49.25
2022-12-08T03:04:53.548Z,51.83
2022-12-08T03:07:48.336Z,51.35
2022-12-08T03:10:53.412Z,50.72
2022-12-08T03:13:30.084Z,50.05
2022-12-08T03:15:57.414Z,52.95
2022-12-08T03:18:31.963Z,51.92
2022-12-08T03:21:00.015Z,51.60
2022-12-08T03:23:27.255Z,49.60
2022-12-08T03:26:09.733Z,51.42
2022-12-08T03:28:38.049Z,48.25
2022-12-08T03:31:10.775Z,50.95
2022-12-08T03:33:44.130Z,49.78
2022-12-08T03:36:12.398Z,49.72
2022-12-08T03:38:45.658Z,51.25
2022-12-08T03:41:19.927Z,50.33
2022-12-08T03:43:53.624Z,48.47
2022-12-08T03:48:51.503Z,49.00
2022-12-08T03:51:19.748Z,48.97
2022-12-08T03:53:47.371Z,49.50
2022-12-08T03:56:34.570Z,49.70
2022-12-08T03:59:02.531Z,51.33
2022-12-08T04:01:29.864Z,47.15
2022-12-08T04:03:56.928Z,47.08
2022-12-08T04:06:24.375Z,49.97
2022-12-08T04:08:52.418Z,49.03
2022-12-08T04:11:20.659Z,48.97
2022-12-08T04:13:48.043Z,46.50
2022-12-08T04:16:22.953Z,46.78
2022-12-08T04:18:50.327Z,48.67
2022-12-08T04:21:18.290Z,47.22
2022-12-08T04:23:46.253Z,48.72
2022-12-08T04:26:14.738Z,50.25
2022-12-08T04:28:42.217Z,47.13
2022-12-08T04:31:09.427Z,50.13
2022-12-08T04:33:36.670Z,49.85
2022-12-08T04:36:05.952Z,50.35
2022-12-08T04:38:34.292Z,48.22
2022-12-08T04:41:02.407Z,49.25
2022-12-08T04:43:29.831Z,50.58
2022-12-08T04:45:56.943Z,49.67
2022-12-08T04:48:24.136Z,49.35
2022-12-08T04:50:51.614Z,50.17
2022-12-08T04:53:19.858Z,51.05
2022-12-08T04:55:48.751Z,48.30
2022-12-08T04:58:18.878Z,50.60
2022-12-08T05:00:47.615Z,46.10
2022-12-08T05:03:16.016Z,48.05
2022-12-08T05:05:43.806Z,48.35
2022-12-08T05:08:11.864Z,48.45
2022-12-08T05:10:39.483Z,49.65
2022-12-08T05:13:06.589Z,47.30
2022-12-08T05:15:33.790Z,47.72
2022-12-08T05:18:00.840Z,48.35
2022-12-08T05:20:28.363Z,48.47
2022-12-08T05:22:55.621Z,50.33
2022-12-08T05:25:22.676Z,45.67
2022-12-08T05:27:49.839Z,48.88
2022-12-08T05:30:16.952Z,48.55
2022-12-08T05:32:44.014Z,47.63
2022-12-08T05:35:12.002Z,51.05
2022-12-08T05:37:39.120Z,47.92
2022-12-08T05:40:08.710Z,46.20
2022-12-08T05:42:36.033Z,51.00
2022-12-08T05:45:03.275Z,47.78
2022-12-08T05:47:35.729Z,45.83
2022-12-08T05:50:04.240Z,46.90
2022-12-08T05:52:32.347Z,47.15
2022-12-08T05:54:59.420Z,46.13
2022-12-08T05:57:26.497Z,45.38
2022-12-08T05:59:53.567Z,46.67
2022-12-08T06:02:20.752Z,45.25
2022-12-08T06:04:50.750Z,43.35
2022-12-08T06:07:17.985Z,47.25
2022-12-08T06:09:45.201Z,44.38
2022-12-08T06:12:12.253Z,46.80
2022-12-08T06:14:39.914Z,44.15
2022-12-08T06:17:07.806Z,47.28
2022-12-08T06:19:35.288Z,44.15
2022-12-08T06:22:02.470Z,40.85
2022-12-08T06:24:29.512Z,43.05
2022-12-08T06:26:56.439Z,44.78
2022-12-08T06:29:23.590Z,44.13
2022-12-08T06:31:52.974Z,46.03
2022-12-08T06:34:20.067Z,46.90
2022-12-08T06:36:47.127Z,46.40
2022-12-08T06:39:14.122Z,47.03
2022-12-08T06:41:59.845Z,44.00
2022-12-08T06:44:26.901Z,39.58
2022-12-08T06:46:54.329Z,42.33
2022-12-08T06:49:21.904Z,44.65
2022-12-08T06:51:48.955Z,46.42
2022-12-08T06:54:15.973Z,41.58
2022-12-08T06:56:43.039Z,41.60
2022-12-08T06:59:10.490Z,43.10
2022-12-08T07:01:37.641Z,43.10
2022-12-08T07:04:05.092Z,43.13
2022-12-08T07:06:32.122Z,42.67
2022-12-08T07:08:59.266Z,40.53
2022-12-08T07:11:27.170Z,42.15
2022-12-08T07:13:57.096Z,43.63
2022-12-08T07:16:24.807Z,40.40
2022-12-08T07:18:52.102Z,43.65
2022-12-08T07:21:19.125Z,46.20
2022-12-08T07:23:51.528Z,41.15
2022-12-08T07:26:24.593Z,40.58
2022-12-08T07:28:51.655Z,39.97
2022-12-08T07:31:25.210Z,39.17
2022-12-08T07:33:53.190Z,42.67
2022-12-08T07:36:20.465Z,40.47
2022-12-08T07:38:48.721Z,39.70
2022-12-08T07:41:19.297Z,38.75
2022-12-08T07:43:46.812Z,39.28
2022-12-08T07:46:16.678Z,41.78
2022-12-08T07:48:44.288Z,49.58
2022-12-08T07:51:13.900Z,42.72
2022-12-08T07:53:48.417Z,42.95
2022-12-08T07:56:19.163Z,40.70
2022-12-08T07:58:46.998Z,41.42
2022-12-08T08:01:21.270Z,38.05
2022-12-08T08:03:48.737Z,38.40
2022-12-08T08:06:16.390Z,37.20
2022-12-08T08:08:43.539Z,36.45
2022-12-08T08:11:17.422Z,32.78
2022-12-08T08:13:48.535Z,35.22
2022-12-08T08:16:15.635Z,35.30
2022-12-08T08:18:43.591Z,36.30
2022-12-08T08:21:43.643Z,34.78
2022-12-08T08:24:00.778Z,34.20
2022-12-08T08:26:28.089Z,38.00
2022-12-08T08:28:55.088Z,35.63
2022-12-08T08:31:27.186Z,34.15
2022-12-08T08:33:56.442Z,37.35
2022-12-08T08:36:23.668Z,37.75
2022-12-08T08:38:51.228Z,36.20
2022-12-08T08:41:18.260Z,34.63
2022-12-08T08:43:45.368Z,32.25
2022-12-08T08:46:12.784Z,33.85
2022-12-08T08:48:40.779Z,32.35
2022-12-08T08:51:14.094Z,37.75
2022-12-08T08:53:42.596Z,35.38
2022-12-08T08:56:19.941Z,35.17
2022-12-08T08:58:49.696Z,33.38
2022-12-08T09:01:26.623Z,35.67
2022-12-08T09:03:54.953Z,35.97
2022-12-08T09:06:24.818Z,34.08
2022-12-08T09:08:52.177Z,38.53
2022-12-08T09:11:19.530Z,37.95
2022-12-08T09:13:52.225Z,35.10
2022-12-08T09:16:19.643Z,36.30
2022-12-08T09:18:48.361Z,32.60
2022-12-08T09:21:23.490Z,32.58
2022-12-08T09:23:56.463Z,39.30
2022-12-08T09:26:26.892Z,35.55
2022-12-08T09:28:56.819Z,35.20
2022-12-08T09:31:26.140Z,53.65
2022-12-08T09:33:53.669Z,75.20
2022-12-08T09:36:21.444Z,49.83
2022-12-08T09:38:51.608Z,35.38
2022-12-08T09:41:48.347Z,33.33
2022-12-08T09:44:41.294Z,34.58
2022-12-08T09:47:21.698Z,35.03
2022-12-08T09:50:03.945Z,35.53
2022-12-08T09:52:44.311Z,37.47
2022-12-08T09:55:36.633Z,38.10
2022-12-08T09:58:12.618Z,36.10
2022-12-08T10:00:39.851Z,36.45
2022-12-08T10:03:16.702Z,34.47
2022-12-08T10:05:56.430Z,37.90
2022-12-08T10:08:42.560Z,35.42
2022-12-08T10:11:19.775Z,32.67
2022-12-08T10:14:16.173Z,36.20
2022-12-08T10:16:50.309Z,34.20
2022-12-08T10:19:25.588Z,35.00
2022-12-08T10:22:00.951Z,31.25
2022-12-08T10:24:46.421Z,33.40
2022-12-08T10:27:13.832Z,31.60
2022-12-08T10:29:41.361Z,33.10
2022-12-08T10:32:35.493Z,34.35
2022-12-08T10:35:15.503Z,32.70
2022-12-08T10:38:00.167Z,31.55
2022-12-08T10:40:40.602Z,28.83
2022-12-08T10:43:19.142Z,29.02
2022-12-08T10:45:46.397Z,32.30
2022-12-08T10:48:21.691Z,29.73
2022-12-08T10:50:58.121Z,31.27
2022-12-08T10:53:32.080Z,31.42
2022-12-08T10:56:02.109Z,32.65
2022-12-08T10:58:41.655Z,30.98
2022-12-08T11:01:17.705Z,32.83
2022-12-08T11:03:56.084Z,30.95
2022-12-08T11:06:33.192Z,32.70
2022-12-08T11:09:05.507Z,35.22
2022-12-08T11:11:51.586Z,34.10
2022-12-08T11:14:31.942Z,33.72
2022-12-08T11:17:23.238Z,33.72
2022-12-08T11:20:04.001Z,31.02
2022-12-08T11:22:59.753Z,38.40
2022-12-08T11:25:28.159Z,31.95
2022-12-08T11:27:59.634Z,30.00
2022-12-08T11:30:34.020Z,32.40
2022-12-08T11:33:14.802Z,30.08
2022-12-08T11:35:46.026Z,29.05
2022-12-08T11:38:24.000Z,32.97
2022-12-08T11:41:06.125Z,32.67
2022-12-08T11:43:35.477Z,30.38
2022-12-08T11:46:12.711Z,30.45
2022-12-08T11:49:06.651Z,31.60
2022-12-08T11:51:56.671Z,33.90
2022-12-08T11:54:36.245Z,32.28
2022-12-08T11:57:07.731Z,32.85
2022-12-08T11:59:36.180Z,33.10
2022-12-08T12:02:05.742Z,32.35
2022-12-08T12:04:46.170Z,31.23
2022-12-08T12:08:03.039Z,31.65
2022-12-08T12:11:09.446Z,31.83
2022-12-08T12:13:48.005Z,32.03
2022-12-08T12:16:42.481Z,31.50
2022-12-08T12:19:19.163Z,35.42
2022-12-08T12:21:53.031Z,31.42
2022-12-08T12:24:30.489Z,29.33
2022-12-08T12:27:29.637Z,29.02
2022-12-08T12:30:08.110Z,29.63
2022-12-08T12:33:02.467Z,29.75
2022-12-08T12:35:37.155Z,34.42
2022-12-08T12:38:37.586Z,31.85
2022-12-08T12:41:07.744Z,32.03
2022-12-08T12:43:38.267Z,29.73
2022-12-08T12:46:37.128Z,32.42
2022-12-08T12:49:43.752Z,28.90
2022-12-08T12:52:16.608Z,31.95
2022-12-08T12:55:03.915Z,31.70
2022-12-08T12:57:52.399Z,32.65
2022-12-08T13:00:24.122Z,32.60
2022-12-08T13:02:53.897Z,33.58
2022-12-08T13:05:28.004Z,31.58
2022-12-08T13:08:03.209Z,33.22
2022-12-08T13:10:50.314Z,33.90
2022-12-08T13:13:19.213Z,33.92
2022-12-08T13:16:17.136Z,34.78
2022-12-08T13:18:52.311Z,33.25
2022-12-08T13:21:23.291Z,34.38
2022-12-08T13:24:10.805Z,30.55
2022-12-08T13:26:51.074Z,33.80
2022-12-08T13:29:24.217Z,34.50
2022-12-08T13:32:35.444Z,33.78
2022-12-08T13:35:16.147Z,33.90
2022-12-08T13:37:54.777Z,34.97
2022-12-08T13:40:32.262Z,35.83
2022-12-08T13:43:21.529Z,32.85
2022-12-08T13:57:36.222Z,58.85
2022-12-08T14:00:15.914Z,47.92
2022-12-08T14:02:48.179Z,41.80
2022-12-08T14:05:21.738Z,53.28
2022-12-08T14:07:56.959Z,62.53
2022-12-08T14:10:29.143Z,44.95
2022-12-08T14:13:03.472Z,39.45
2022-12-08T14:15:37.736Z,38.97
2022-12-08T14:18:20.074Z,44.22
2022-12-08T14:21:21.651Z,45.72
2022-12-08T14:23:49.036Z,40.03
2022-12-08T14:26:16.112Z,40.53
2022-12-08T14:28:45.242Z,46.13
2022-12-08T14:31:14.584Z,45.60
2022-12-08T14:33:42.612Z,45.63
2022-12-08T14:36:10.394Z,44.53
2022-12-08T14:38:37.554Z,46.55
2022-12-08T14:41:08.851Z,44.13
2022-12-08T14:43:36.573Z,44.95
2022-12-08T14:46:20.070Z,42.58
2022-12-08T14:48:47.608Z,42.92
2022-12-08T14:51:23.635Z,42.75
2022-12-08T14:54:13.373Z,42.88
2022-12-08T14:56:50.398Z,40.75
2022-12-08T14:59:30.490Z,42.70
2022-12-08T15:02:27.493Z,43.92
2022-12-08T15:05:18.438Z,40.42
2022-12-08T15:08:02.621Z,41.50
2022-12-08T15:10:38.190Z,40.42
2022-12-08T15:13:11.712Z,43.85
2022-12-08T15:15:56.919Z,49.63
2022-12-08T15:18:40.810Z,57.88
2022-12-08T15:21:12.617Z,69.03
2022-12-08T15:23:48.515Z,75.90
2022-12-08T15:26:24.896Z,49.92
2022-12-08T15:28:52.165Z,45.08
2022-12-08T15:31:19.687Z,42.33
2022-12-08T15:33:46.814Z,42.78
2022-12-08T15:36:13.803Z,40.70
2022-12-08T15:38:40.931Z,40.83
2022-12-08T15:41:13.036Z,38.35
2022-12-08T15:43:41.864Z,42.22
2022-12-08T15:46:08.964Z,42.55
2022-12-08T15:48:37.984Z,52.40
2022-12-08T15:51:05.217Z,42.58
2022-12-08T15:53:32.338Z,40.50
2022-12-08T15:56:26.898Z,39.00
2022-12-08T15:58:54.730Z,41.42
2022-12-08T16:01:23.698Z,42.33
2022-12-08T16:07:19.651Z,41.50
2022-12-08T16:09:37.101Z,41.22
2022-12-08T16:13:06.962Z,37.55
2022-12-08T16:18:16.767Z,44.88
2022-12-08T16:21:08.103Z,43.15
2022-12-08T16:23:42.932Z,43.35
2022-12-08T16:26:44.358Z,44.60
2022-12-08T16:29:06.286Z,47.42
2022-12-08T16:31:34.138Z,44.97
2022-12-08T16:34:01.394Z,47.95
2022-12-08T16:36:29.075Z,45.72
2022-12-08T16:38:56.276Z,43.97
2022-12-08T16:41:41.581Z,43.75
2022-12-08T16:44:08.605Z,40.85
2022-12-08T16:46:37.156Z,41.35
2022-12-08T16:49:04.943Z,42.88
2022-12-08T16:51:31.967Z,44.30
2022-12-08T16:53:59.119Z,47.92
2022-12-08T16:56:32.687Z,50.28
2022-12-08T16:59:02.542Z,51.15
2022-12-08T17:01:30.242Z,50.20
2022-12-08T17:06:44.482Z,44.47
2022-12-08T17:09:11.559Z,44.58
2022-12-08T17:11:43.008Z,44.50
2022-12-08T17:14:13.866Z,43.92
2022-12-08T17:16:41.499Z,46.55
2022-12-08T17:19:13.789Z,49.00
2022-12-08T17:21:41.766Z,48.63
2022-12-08T17:24:08.859Z,46.90
2022-12-08T17:26:36.538Z,45.40
2022-12-08T17:29:04.302Z,45.22
2022-12-08T17:31:32.996Z,46.65
2022-12-08T17:34:08.682Z,47.33
2022-12-08T17:36:36.129Z,46.90
2022-12-08T17:39:04.638Z,45.60
2022-12-08T17:41:32.173Z,47.15
2022-12-08T17:43:59.157Z,46.22
2022-12-08T17:46:27.688Z,46.58
2022-12-08T17:48:55.381Z,42.47
2022-12-08T17:51:22.697Z,45.47
2022-12-08T17:53:49.921Z,46.42
2022-12-08T17:56:21.281Z,43.20
2022-12-08T17:58:54.350Z,41.28
2022-12-08T18:01:24.106Z,41.25
2022-12-08T18:03:51.944Z,42.83
2022-12-08T18:06:19.435Z,44.38
2022-12-08T18:08:46.789Z,45.63
2022-12-08T18:11:19.338Z,46.33
2022-12-08T18:13:49.079Z,48.58
2022-12-08T18:16:17.886Z,53.25
2022-12-08T18:18:44.922Z,46.75
2022-12-08T18:21:12.510Z,47.28
2022-12-08T18:23:42.405Z,46.33
2022-12-08T18:26:12.786Z,45.45
2022-12-08T18:28:40.406Z,46.90
2022-12-08T18:31:13.863Z,46.72
2022-12-08T18:33:43.822Z,46.25
2022-12-08T18:36:14.871Z,51.75
2022-12-08T18:38:42.664Z,47.20
2022-12-08T18:41:24.966Z,47.42
2022-12-08T18:43:56.367Z,47.42
2022-12-08T18:46:24.677Z,47.25
2022-12-08T18:48:52.536Z,45.40
2022-12-08T18:51:24.284Z,45.63
2022-12-08T18:53:52.471Z,47.63
2022-12-08T18:56:32.506Z,46.78
2022-12-08T18:59:05.817Z,48.78
2022-12-08T19:01:34.872Z,54.70
2022-12-08T19:06:56.956Z,50.00
2022-12-08T19:09:26.812Z,45.20
2022-12-08T19:11:54.137Z,46.35
2022-12-08T19:14:27.755Z,47.05
2022-12-08T19:19:22.842Z,49.13
2022-12-08T19:21:50.347Z,49.83
2022-12-08T19:24:18.056Z,48.03
2022-12-08T19:26:45.315Z,49.40
2022-12-08T19:29:12.790Z,48.40
2022-12-08T19:31:41.070Z,47.10
2022-12-08T19:34:09.627Z,48.35
2022-12-08T19:36:42.341Z,46.72
2022-12-08T19:39:41.195Z,49.30
2022-12-08T19:42:39.339Z,49.08
2022-12-08T19:45:16.627Z,47.97
2022-12-08T19:47:44.632Z,48.53
2022-12-08T19:50:33.153Z,47.15
2022-12-08T19:53:01.268Z,52.00
2022-12-08T19:55:28.796Z,52.97
2022-12-08T19:57:57.161Z,54.30
2022-12-08T20:00:24.656Z,60.70
2022-12-08T20:02:51.995Z,60.47
2022-12-08T20:05:19.422Z,57.38
2022-12-08T20:07:46.574Z,53.03
2022-12-08T20:10:22.184Z,51.63
2022-12-08T20:12:49.763Z,51.50
2022-12-08T20:15:17.115Z,51.88
2022-12-08T20:17:44.372Z,51.47
2022-12-08T20:20:14.493Z,52.92
2022-12-08T20:22:42.653Z,53.13
2022-12-08T20:25:12.958Z,52.47
2022-12-08T20:27:41.396Z,52.22
2022-12-08T20:30:15.030Z,50.33
2022-12-08T20:32:43.990Z,52.05
2022-12-08T20:35:11.095Z,51.58
2022-12-08T20:37:38.400Z,51.88
2022-12-08T20:40:07.172Z,48.90
2022-12-08T20:42:37.564Z,49.03
2022-12-08T20:45:07.341Z,49.10
2022-12-08T20:47:35.640Z,49.90
2022-12-08T20:50:05.662Z,49.80
2022-12-08T20:52:33.487Z,57.03
2022-12-08T20:55:00.590Z,53.40
2022-12-08T20:57:27.805Z,50.30
2022-12-08T20:59:57.356Z,48.60
2022-12-08T21:02:24.551Z,47.20
2022-12-08T21:04:51.910Z,49.90
2022-12-08T21:07:19.165Z,49.40
2022-12-08T21:09:46.403Z,48.10
2022-12-08T21:12:13.901Z,50.95
2022-12-08T21:14:41.289Z,49.10
2022-12-08T21:17:08.418Z,50.30
2022-12-08T21:19:35.956Z,51.65
2022-12-08T21:22:03.555Z,52.25
2022-12-08T21:24:34.401Z,52.17
2022-12-08T21:27:02.208Z,52.35
2022-12-08T21:29:29.569Z,58.15
2022-12-08T21:32:01.263Z,53.50
2022-12-08T21:34:34.252Z,53.97
2022-12-08T21:37:02.781Z,53.92
2022-12-08T21:39:30.177Z,51.53
2022-12-08T21:42:16.232Z,54.60
2022-12-08T21:44:43.897Z,52.72
2022-12-08T21:47:11.409Z,53.08
2022-12-08T21:49:38.868Z,51.70
2022-12-08T21:52:06.252Z,54.28
2022-12-08T21:54:33.417Z,54.08
2022-12-08T21:57:00.714Z,54.00
2022-12-08T21:59:28.255Z,54.33
2022-12-08T22:01:55.755Z,53.35
2022-12-08T22:04:25.260Z,55.08
2022-12-08T22:06:52.739Z,57.88
2022-12-08T22:09:20.005Z,53.28
2022-12-08T22:11:47.603Z,54.67
2022-12-08T22:14:15.418Z,54.92
2022-12-08T22:16:44.143Z,56.92
2022-12-08T22:19:12.479Z,53.33
2022-12-08T22:21:40.393Z,53.20
2022-12-08T22:24:08.279Z,54.35
2022-12-08T22:26:35.670Z,56.00
2022-12-08T22:29:02.912Z,59.10
2022-12-08T22:31:31.618Z,55.88
2022-12-08T22:33:59.663Z,58.95
2022-12-08T22:36:28.123Z,60.50
2022-12-08T22:38:55.832Z,56.97
2022-12-08T22:41:23.793Z,58.60
2022-12-08T22:43:51.722Z,57.13
2022-12-08T22:46:27.535Z,56.83
2022-12-08T22:48:55.710Z,56.88
2022-12-08T22:51:23.751Z,60.10
2022-12-08T22:53:51.325Z,60.65
2022-12-08T22:56:19.348Z,60.05
2022-12-08T22:58:47.224Z,61.50
2022-12-08T23:01:31.138Z,65.10
2022-12-08T23:04:00.362Z,61.58
2022-12-08T23:06:29.642Z,57.42
2022-12-08T23:08:57.924Z,58.42
2022-12-08T23:11:28.978Z,57.92
2022-12-08T23:13:58.477Z,60.72
2022-12-08T23:16:26.537Z,58.55
2022-12-08T23:18:54.016Z,60.70
2022-12-08T23:21:21.595Z,63.83
2022-12-08T23:23:48.932Z,62.67
2022-12-08T23:26:25.785Z,62.65
2022-12-08T23:28:54.067Z,62.60
2022-12-08T23:31:22.924Z,65.97
2022-12-08T23:33:51.128Z,63.42
2022-12-08T23:36:20.441Z,67.50
2022-12-08T23:38:48.021Z,63.35
2022-12-08T23:41:16.861Z,65.75
2022-12-08T23:43:50.718Z,65.75
2022-12-08T23:46:21.311Z,66.63
2022-12-08T23:48:49.595Z,62.60
2022-12-08T23:51:17.673Z,64.63
2022-12-08T23:53:45.496Z,66.25
2022-12-08T23:56:15.844Z,67.47
2022-12-08T23:58:44.410Z,65.75
